createdAt,value
2023-04-13T00:01:33.746Z,32.85
2023-04-13T00:04:04.741Z,32.92
2023-04-13T00:06:31.811Z,32.84
2023-04-13T00:08:58.893Z,33.08
2023-04-13T00:11:27.875Z,33.26
2023-04-13T00:13:55.406Z,33.13
2023-04-13T00:16:23.294Z,33.31
2023-04-13T00:18:50.676Z,33.20
2023-04-13T00:21:17.382Z,32.87
2023-04-13T00:23:44.832Z,32.93
2023-04-13T00:26:11.471Z,33.28
2023-04-13T00:28:38.073Z,33.18
2023-04-13T00:31:04.847Z,33.33
2023-04-13T00:33:31.608Z,33.19
2023-04-13T00:35:58.182Z,33.35
2023-04-13T00:38:27.299Z,33.61
2023-04-13T00:40:54.747Z,33.40
2023-04-13T00:43:21.682Z,33.23
2023-04-13T00:45:48.765Z,33.63
2023-04-13T00:48:16.039Z,33.79
2023-04-13T00:50:42.957Z,34.07
2023-04-13T00:53:13.373Z,33.73
2023-04-13T00:55:42.663Z,33.99
2023-04-13T00:58:09.738Z,34.05
2023-04-13T01:00:39.225Z,34.52
2023-04-13T01:03:06.193Z,35.44
2023-04-13T01:05:39.730Z,34.82
2023-04-13T01:08:11.552Z,34.89
2023-04-13T01:10:58.761Z,34.74
2023-04-13T01:13:25.317Z,34.23
2023-04-13T01:16:12.138Z,34.60
2023-04-13T01:18:40.514Z,34.43
2023-04-13T01:21:09.254Z,34.56
2023-04-13T01:23:51.369Z,34.65
2023-04-13T01:26:17.984Z,35.00
2023-04-13T01:28:45.236Z,34.79
2023-04-13T01:31:12.784Z,35.17
2023-04-13T01:33:40.580Z,35.13
2023-04-13T01:36:08.609Z,34.80
2023-04-13T01:38:35.676Z,35.19
2023-04-13T01:41:02.591Z,34.85
2023-04-13T01:43:29.343Z,35.26
2023-04-13T01:46:25.253Z,35.02
2023-04-13T01:48:56.701Z,35.19
2023-04-13T01:51:24.899Z,35.04
2023-04-13T01:53:53.704Z,35.57
2023-04-13T01:56:23.220Z,36.18
2023-04-13T01:58:51.872Z,35.60
2023-04-13T02:01:18.443Z,35.28
2023-04-13T02:03:45.388Z,35.75
2023-04-13T02:06:12.246Z,36.29
2023-04-13T02:08:40.296Z,35.90
2023-04-13T02:11:07.803Z,36.44
2023-04-13T02:13:34.544Z,35.75
2023-04-13T02:16:21.128Z,35.92
2023-04-13T02:18:48.275Z,35.95
2023-04-13T02:21:16.390Z,35.94
2023-04-13T02:23:43.065Z,35.87
2023-04-13T02:26:10.310Z,36.54
2023-04-13T02:28:36.919Z,36.38
2023-04-13T02:31:03.729Z,35.56
2023-04-13T02:33:31.735Z,36.35
2023-04-13T02:35:59.227Z,36.05
2023-04-13T02:38:27.397Z,35.65
2023-04-13T02:40:58.986Z,35.54
2023-04-13T02:43:29.032Z,35.83
2023-04-13T02:45:55.965Z,35.66
2023-04-13T02:48:22.622Z,36.30
2023-04-13T02:50:49.259Z,35.86
2023-04-13T02:53:16.795Z,36.27
2023-04-13T02:55:43.363Z,36.62
2023-04-13T02:58:10.562Z,36.18
2023-04-13T03:00:37.521Z,36.08
2023-04-13T03:03:04.533Z,35.86
2023-04-13T03:05:34.058Z,36.08
2023-04-13T03:08:00.769Z,36.36
2023-04-13T03:10:27.414Z,36.27
2023-04-13T03:12:54.127Z,36.46
2023-04-13T03:15:20.798Z,36.64
2023-04-13T03:17:47.417Z,36.77
2023-04-13T03:20:16.398Z,36.72
2023-04-13T03:22:43.372Z,36.16
2023-04-13T03:25:09.978Z,36.55
2023-04-13T03:27:36.780Z,36.33
2023-04-13T03:30:03.895Z,36.62
2023-04-13T03:32:31.563Z,36.79
2023-04-13T03:34:58.295Z,36.51
2023-04-13T03:37:29.933Z,36.66
2023-04-13T03:39:56.683Z,36.61
2023-04-13T03:42:23.400Z,36.47
2023-04-13T03:44:49.929Z,36.68
2023-04-13T03:47:16.758Z,37.05
2023-04-13T03:49:43.296Z,36.76
2023-04-13T03:52:09.858Z,36.81
2023-04-13T03:54:36.831Z,37.14
2023-04-13T03:57:04.674Z,36.63
2023-04-13T03:59:31.561Z,36.92
2023-04-13T04:01:58.618Z,37.08
2023-04-13T04:04:25.487Z,37.09
2023-04-13T04:06:52.178Z,36.75
2023-04-13T04:09:18.786Z,37.10
2023-04-13T04:11:45.586Z,37.13
2023-04-13T04:14:12.177Z,37.36
2023-04-13T04:16:38.779Z,37.21
2023-04-13T04:19:05.398Z,37.09
2023-04-13T04:21:34.639Z,37.06
2023-04-13T04:24:01.645Z,37.26
2023-04-13T04:26:30.024Z,37.29
2023-04-13T04:29:02.589Z,36.99
2023-04-13T04:31:36.726Z,37.18
2023-04-13T04:34:04.038Z,37.69
2023-04-13T04:36:30.938Z,37.14
2023-04-13T04:39:02.725Z,37.60
2023-04-13T04:41:31.319Z,37.52
2023-04-13T04:44:03.491Z,37.33
2023-04-13T04:46:30.054Z,37.42
2023-04-13T04:49:00.715Z,37.21
2023-04-13T04:51:27.710Z,37.42
2023-04-13T04:53:54.377Z,37.45
2023-04-13T04:56:21.542Z,37.24
2023-04-13T04:58:48.088Z,37.62
2023-04-13T05:01:14.668Z,37.31
2023-04-13T05:03:41.291Z,37.05
2023-04-13T05:06:08.244Z,37.15
2023-04-13T05:08:34.845Z,37.27
2023-04-13T05:11:01.519Z,36.93
2023-04-13T05:13:28.144Z,37.00
2023-04-13T05:15:54.727Z,36.87
2023-04-13T05:18:21.704Z,36.86
2023-04-13T05:20:48.241Z,37.12
2023-04-13T05:23:14.817Z,36.92
2023-04-13T05:25:41.352Z,36.84
2023-04-13T05:28:07.930Z,36.82
2023-04-13T05:30:35.340Z,36.45
2023-04-13T05:33:05.760Z,36.76
2023-04-13T05:35:32.401Z,36.52
2023-04-13T05:38:01.211Z,36.68
2023-04-13T05:40:29.020Z,36.54
2023-04-13T05:42:56.404Z,36.77
2023-04-13T05:45:23.048Z,36.49
2023-04-13T05:47:50.340Z,36.51
2023-04-13T05:50:17.059Z,36.41
2023-04-13T05:52:43.616Z,36.40
2023-04-13T05:55:10.271Z,36.37
2023-04-13T05:57:36.974Z,36.35
2023-04-13T06:00:07.790Z,36.22
2023-04-13T06:02:36.289Z,36.08
2023-04-13T06:05:05.133Z,36.11
2023-04-13T06:07:31.913Z,36.00
2023-04-13T06:10:00.800Z,35.72
2023-04-13T06:12:27.537Z,35.57
2023-04-13T06:14:54.392Z,35.81
2023-04-13T06:17:20.971Z,35.57
2023-04-13T06:19:47.529Z,35.45
2023-04-13T06:22:14.055Z,35.47
2023-04-13T06:24:40.618Z,35.30
2023-04-13T06:27:07.193Z,35.19
2023-04-13T06:29:33.777Z,35.52
2023-04-13T06:32:00.503Z,35.31
2023-04-13T06:34:27.214Z,35.55
2023-04-13T06:36:54.095Z,35.47
2023-04-13T06:39:20.965Z,35.21
2023-04-13T06:41:48.341Z,34.98
2023-04-13T06:44:14.978Z,35.28
2023-04-13T06:46:41.679Z,35.06
2023-04-13T06:49:09.272Z,35.15
2023-04-13T06:51:36.075Z,35.04
2023-04-13T06:54:02.681Z,35.09
2023-04-13T06:56:29.272Z,34.91
2023-04-13T06:59:02.657Z,34.83
2023-04-13T07:01:29.878Z,34.83
2023-04-13T07:03:56.610Z,34.47
2023-04-13T07:06:23.312Z,34.62
2023-04-13T07:08:49.916Z,34.24
2023-04-13T07:11:16.488Z,33.11
2023-04-13T07:13:43.126Z,33.90
2023-04-13T07:16:09.814Z,33.66
2023-04-13T07:18:36.524Z,33.74
2023-04-13T07:21:03.182Z,33.64
2023-04-13T07:23:29.737Z,34.03
2023-04-13T07:25:56.301Z,33.53
2023-04-13T07:28:24.192Z,33.78
2023-04-13T07:30:50.901Z,33.77
2023-04-13T07:33:17.529Z,33.52
2023-04-13T07:35:44.168Z,33.27
2023-04-13T07:38:10.753Z,32.96
2023-04-13T07:40:37.336Z,31.62
2023-04-13T07:43:03.957Z,31.38
2023-04-13T07:45:33.788Z,32.26
2023-04-13T07:48:00.737Z,32.83
2023-04-13T07:50:27.532Z,32.15
2023-04-13T07:52:54.716Z,32.79
2023-04-13T07:55:21.451Z,32.66
2023-04-13T07:57:48.004Z,32.57
2023-04-13T08:00:15.131Z,32.21
2023-04-13T08:02:42.398Z,32.33
2023-04-13T08:05:09.541Z,32.59
2023-04-13T08:07:36.558Z,32.59
2023-04-13T08:10:04.183Z,30.54
2023-04-13T08:12:31.361Z,32.31
2023-04-13T08:14:57.991Z,31.41
2023-04-13T08:17:24.609Z,31.40
2023-04-13T08:19:51.345Z,31.48
2023-04-13T08:22:18.636Z,31.01
2023-04-13T08:24:45.926Z,31.43
2023-04-13T08:27:12.502Z,30.60
2023-04-13T08:29:39.127Z,30.77
2023-04-13T08:32:05.988Z,31.23
2023-04-13T08:34:32.678Z,30.95
2023-04-13T08:36:59.220Z,30.92
2023-04-13T08:39:26.091Z,29.97
2023-04-13T08:41:52.719Z,29.35
2023-04-13T08:44:19.390Z,28.86
2023-04-13T08:46:46.617Z,30.62
2023-04-13T08:49:13.499Z,30.30
2023-04-13T08:51:43.532Z,29.89
2023-04-13T08:54:12.840Z,30.65
2023-04-13T08:56:46.024Z,27.43
2023-04-13T08:59:16.211Z,29.95
2023-04-13T09:01:45.292Z,29.13
2023-04-13T09:04:13.618Z,30.08
2023-04-13T09:06:42.732Z,30.08
2023-04-13T09:09:10.987Z,29.77
2023-04-13T09:11:37.657Z,29.46
2023-04-13T09:14:04.265Z,29.71
2023-04-13T09:16:37.995Z,29.82
2023-04-13T09:19:04.590Z,29.18
2023-04-13T09:21:38.616Z,29.06
2023-04-13T09:24:08.749Z,29.38
2023-04-13T09:26:45.474Z,28.50
2023-04-13T09:29:18.940Z,28.60
2023-04-13T09:31:46.616Z,27.35
2023-04-13T09:34:13.652Z,28.23
2023-04-13T09:36:53.340Z,28.32
2023-04-13T09:39:28.316Z,28.29
2023-04-13T09:41:55.413Z,27.49
2023-04-13T09:44:24.653Z,27.83
2023-04-13T09:46:59.098Z,27.32
2023-04-13T09:49:26.268Z,26.44
2023-04-13T09:51:55.876Z,27.60
2023-04-13T09:54:22.899Z,27.36
2023-04-13T09:56:54.605Z,27.16
2023-04-13T09:59:24.832Z,27.53
2023-04-13T10:01:51.986Z,27.61
2023-04-13T10:04:19.147Z,27.46
2023-04-13T10:06:47.015Z,27.64
2023-04-13T10:09:13.737Z,27.25
2023-04-13T10:11:49.725Z,27.11
2023-04-13T10:14:36.156Z,26.67
2023-04-13T10:17:36.253Z,26.59
2023-04-13T10:20:10.326Z,26.93
2023-04-13T10:22:38.354Z,26.55
2023-04-13T10:25:06.936Z,25.79
2023-04-13T10:27:36.591Z,25.38
2023-04-13T10:30:13.241Z,24.97
2023-04-13T10:32:39.854Z,22.29
2023-04-13T10:35:11.736Z,22.88
2023-04-13T10:37:40.567Z,22.32
2023-04-13T10:40:13.471Z,23.65
2023-04-13T10:45:28.617Z,21.27
2023-04-13T10:47:55.886Z,23.19
2023-04-13T10:50:23.592Z,23.17
2023-04-13T10:53:06.933Z,23.00
2023-04-13T10:55:34.758Z,20.88
2023-04-13T10:58:02.153Z,22.24
2023-04-13T11:00:44.895Z,21.40
2023-04-13T11:03:17.684Z,20.65
2023-04-13T11:05:48.490Z,20.49
2023-04-13T11:08:21.748Z,18.16
2023-04-13T11:10:52.786Z,20.08
2023-04-13T11:13:19.776Z,20.41
2023-04-13T11:15:48.148Z,20.60
2023-04-13T11:18:24.064Z,19.47
2023-04-13T11:20:51.243Z,20.04
2023-04-13T11:23:18.944Z,19.61
2023-04-13T11:26:01.427Z,19.67
2023-04-13T11:28:39.439Z,19.21
2023-04-13T11:31:07.649Z,19.35
2023-04-13T11:33:34.458Z,19.58
2023-04-13T11:36:01.190Z,19.47
2023-04-13T11:38:28.287Z,18.90
2023-04-13T11:41:12.580Z,18.78
2023-04-13T11:43:42.238Z,19.20
2023-04-13T11:46:10.506Z,19.38
2023-04-13T11:48:37.145Z,18.97
2023-04-13T11:51:04.334Z,18.80
2023-04-13T11:53:32.246Z,19.19
2023-04-13T11:55:58.893Z,19.16
2023-04-13T11:58:26.274Z,18.06
2023-04-13T12:00:54.556Z,19.23
2023-04-13T12:06:00.396Z,18.88
2023-04-13T12:08:28.136Z,18.93
2023-04-13T12:11:38.991Z,18.97
2023-04-13T12:17:01.526Z,18.49
2023-04-13T12:21:53.360Z,17.34
2023-04-13T12:24:20.103Z,18.44
2023-04-13T12:29:16.322Z,17.80
2023-04-13T12:31:45.598Z,17.61
2023-04-13T12:34:12.398Z,17.85
2023-04-13T12:36:39.008Z,17.85
2023-04-13T12:39:06.757Z,17.75
2023-04-13T12:41:33.608Z,17.11
2023-04-13T12:44:00.471Z,16.51
2023-04-13T12:46:27.110Z,17.16
2023-04-13T12:48:54.098Z,15.99
2023-04-13T12:51:20.797Z,17.31
2023-04-13T12:53:47.438Z,18.23
2023-04-13T12:56:13.977Z,18.51
2023-04-13T12:58:40.574Z,18.84
2023-04-13T13:01:07.305Z,18.74
2023-04-13T13:03:34.867Z,18.67
2023-04-13T13:06:01.790Z,19.00
2023-04-13T13:08:28.414Z,19.33
2023-04-13T13:10:55.919Z,19.05
2023-04-13T13:13:22.923Z,18.90
2023-04-13T13:15:49.471Z,19.14
2023-04-13T13:18:16.062Z,19.09
2023-04-13T13:20:42.768Z,19.33
2023-04-13T13:23:09.845Z,19.61
2023-04-13T13:25:38.141Z,19.64
2023-04-13T13:28:13.945Z,20.23
2023-04-13T13:30:41.018Z,20.27
2023-04-13T13:33:08.144Z,20.50
2023-04-13T13:35:34.964Z,20.36
2023-04-13T13:38:02.057Z,20.40
2023-04-13T13:40:28.864Z,20.48
2023-04-13T13:42:55.693Z,20.79
2023-04-13T13:45:22.355Z,20.70
2023-04-13T13:47:53.808Z,20.74
2023-04-13T13:50:23.763Z,20.71
2023-04-13T13:53:01.624Z,21.04
2023-04-13T13:55:29.420Z,21.19
2023-04-13T13:57:56.049Z,20.94
2023-04-13T14:00:23.393Z,20.72
2023-04-13T14:02:50.030Z,20.65
2023-04-13T14:05:17.720Z,20.43
2023-04-13T14:07:45.049Z,20.98
2023-04-13T14:10:11.841Z,20.75
2023-04-13T14:12:40.786Z,20.89
2023-04-13T14:15:08.296Z,21.26
2023-04-13T14:17:35.483Z,21.05
2023-04-13T14:20:02.494Z,21.14
2023-04-13T14:22:29.259Z,21.14
2023-04-13T14:24:56.730Z,20.59
2023-04-13T14:27:23.300Z,20.24
2023-04-13T14:29:50.030Z,19.85
2023-04-13T14:32:16.621Z,19.77
2023-04-13T14:34:46.063Z,19.50
2023-04-13T14:37:13.262Z,19.37
2023-04-13T14:39:39.859Z,19.56
2023-04-13T14:42:07.771Z,19.47
2023-04-13T14:44:34.784Z,19.49
2023-04-13T14:47:01.583Z,19.48
2023-04-13T14:49:28.212Z,19.27
2023-04-13T14:51:54.773Z,19.42
2023-04-13T14:54:21.455Z,19.57
2023-04-13T14:56:48.715Z,19.74
2023-04-13T14:59:15.342Z,20.17
2023-04-13T15:01:42.353Z,20.00
2023-04-13T15:04:09.160Z,20.36
2023-04-13T15:06:36.517Z,20.68
2023-04-13T15:09:06.416Z,20.62
2023-04-13T15:11:33.141Z,21.04
2023-04-13T15:13:59.658Z,21.42
2023-04-13T15:16:26.275Z,21.40
2023-04-13T15:18:52.999Z,22.04
2023-04-13T15:21:19.649Z,22.81
2023-04-13T15:23:46.221Z,22.26
2023-04-13T15:26:17.203Z,22.99
2023-04-13T15:28:43.808Z,22.48
2023-04-13T15:31:10.520Z,22.97
2023-04-13T15:33:38.136Z,22.98
2023-04-13T15:36:05.086Z,22.80
2023-04-13T15:38:31.653Z,22.95
2023-04-13T15:40:58.374Z,24.60
2023-04-13T15:43:24.894Z,23.33
2023-04-13T15:45:51.505Z,23.47
2023-04-13T15:48:19.062Z,24.29
2023-04-13T15:50:45.632Z,23.69
2023-04-13T15:53:12.148Z,24.04
2023-04-13T15:55:40.312Z,23.94
2023-04-13T15:58:07.611Z,24.23
2023-04-13T16:00:34.255Z,24.36
2023-04-13T16:03:01.023Z,24.64
2023-04-13T16:05:28.907Z,24.69
2023-04-13T16:07:57.191Z,25.05
2023-04-13T16:10:24.237Z,25.03
2023-04-13T16:12:50.860Z,24.79
2023-04-13T16:15:19.408Z,24.91
2023-04-13T16:17:47.885Z,25.07
2023-04-13T16:20:14.623Z,25.44
2023-04-13T16:22:41.899Z,25.36
2023-04-13T16:25:11.317Z,25.63
2023-04-13T16:27:40.031Z,25.45
2023-04-13T16:30:08.194Z,26.42
2023-04-13T16:32:34.863Z,26.05
2023-04-13T16:35:01.739Z,25.83
2023-04-13T16:37:28.300Z,26.06
2023-04-13T16:39:54.904Z,26.54
2023-04-13T16:42:22.044Z,27.41
2023-04-13T16:44:49.050Z,28.60
2023-04-13T16:47:15.667Z,26.84
2023-04-13T16:49:42.253Z,26.58
2023-04-13T16:52:08.888Z,27.07
2023-04-13T16:54:36.027Z,30.08
2023-04-13T16:57:02.651Z,27.38
2023-04-13T16:59:29.285Z,27.47
2023-04-13T17:01:55.903Z,27.20
2023-04-13T17:04:22.624Z,27.33
2023-04-13T17:06:49.312Z,27.50
2023-04-13T17:09:15.873Z,27.42
2023-04-13T17:11:42.472Z,28.93
2023-04-13T17:14:09.165Z,27.81
2023-04-13T17:16:36.005Z,27.78
2023-04-13T17:19:03.185Z,27.98
2023-04-13T17:21:30.001Z,27.91
2023-04-13T17:23:56.688Z,28.69
2023-04-13T17:26:23.269Z,28.80
2023-04-13T17:28:49.877Z,28.65
2023-04-13T17:31:16.761Z,29.18
2023-04-13T17:33:45.049Z,28.73
2023-04-13T17:36:11.612Z,28.27
2023-04-13T17:38:38.161Z,28.62
2023-04-13T17:41:06.614Z,28.90
2023-04-13T17:43:33.443Z,29.20
2023-04-13T17:46:00.092Z,29.43
2023-04-13T17:48:26.646Z,28.99
2023-04-13T17:50:53.193Z,28.96
2023-04-13T17:53:19.821Z,28.85
2023-04-13T17:55:46.452Z,29.15
2023-04-13T17:58:13.040Z,29.23
2023-04-13T18:00:39.676Z,29.51
2023-04-13T18:03:06.896Z,30.06
2023-04-13T18:05:33.609Z,29.63
2023-04-13T18:08:00.475Z,29.66
2023-04-13T18:10:27.093Z,30.11
2023-04-13T18:12:53.686Z,30.02
2023-04-13T18:15:20.339Z,30.63
2023-04-13T18:17:46.942Z,29.84
2023-04-13T18:20:13.610Z,30.03
2023-04-13T18:22:40.475Z,30.01
2023-04-13T18:25:07.171Z,30.63
2023-04-13T18:27:33.775Z,32.85
2023-04-13T18:30:00.504Z,30.31
2023-04-13T18:32:27.146Z,31.73
2023-04-13T18:34:53.777Z,30.65
2023-04-13T18:37:20.561Z,30.82
2023-04-13T18:39:49.909Z,30.35
2023-04-13T18:42:16.723Z,33.52
2023-04-13T18:44:43.275Z,31.63
2023-04-13T18:47:09.837Z,31.86
2023-04-13T18:49:36.388Z,31.49
2023-04-13T18:52:03.037Z,31.65
2023-04-13T18:54:30.052Z,31.89
2023-04-13T18:56:56.621Z,31.74
2023-04-13T18:59:23.245Z,31.56
2023-04-13T19:01:49.928Z,33.28
2023-04-13T19:04:16.679Z,31.88
2023-04-13T19:06:43.538Z,32.54
2023-04-13T19:09:10.112Z,32.36
2023-04-13T19:11:51.025Z,31.99
2023-04-13T19:14:17.759Z,32.12
2023-04-13T19:16:46.321Z,32.44
2023-04-13T19:19:14.821Z,32.08
2023-04-13T19:21:41.451Z,32.35
2023-04-13T19:24:08.194Z,32.55
2023-04-13T19:26:34.828Z,32.86
2023-04-13T19:29:03.834Z,32.55
2023-04-13T19:31:30.567Z,34.52
2023-04-13T19:33:57.695Z,35.79
2023-04-13T19:36:25.857Z,33.51
2023-04-13T19:38:52.583Z,33.33
2023-04-13T19:41:19.237Z,33.12
2023-04-13T19:43:47.203Z,33.14
2023-04-13T19:46:13.850Z,33.26
2023-04-13T19:48:41.666Z,33.59
2023-04-13T19:51:08.431Z,34.43
2023-04-13T19:53:37.429Z,33.78
2023-04-13T19:56:04.844Z,33.94
2023-04-13T19:58:31.459Z,34.15
2023-04-13T20:00:59.124Z,33.71
2023-04-13T20:03:28.752Z,34.18
2023-04-13T20:06:01.342Z,34.42
2023-04-13T20:08:27.911Z,35.66
2023-04-13T20:10:55.328Z,34.20
2023-04-13T20:13:21.917Z,34.28
2023-04-13T20:15:48.535Z,34.63
2023-04-13T20:18:17.294Z,34.61
2023-04-13T20:20:44.281Z,34.66
2023-04-13T20:23:10.977Z,35.02
2023-04-13T20:25:38.637Z,34.71
2023-04-13T20:28:05.545Z,35.79
2023-04-13T20:30:32.189Z,34.91
2023-04-13T20:32:58.823Z,35.08
2023-04-13T20:35:25.382Z,34.63
2023-04-13T20:37:52.006Z,37.43
2023-04-13T20:40:18.758Z,35.45
2023-04-13T20:42:45.527Z,35.61
2023-04-13T20:45:15.308Z,35.19
2023-04-13T20:47:44.938Z,35.23
2023-04-13T20:50:13.446Z,35.07
2023-04-13T20:52:41.964Z,35.26
2023-04-13T20:55:12.015Z,35.07
2023-04-13T20:57:41.882Z,35.31
2023-04-13T21:00:13.836Z,35.42
2023-04-13T21:02:42.647Z,35.34
2023-04-13T21:05:10.441Z,35.06
2023-04-13T21:07:38.060Z,35.36
2023-04-13T21:10:04.780Z,35.48
2023-04-13T21:12:32.042Z,35.42
2023-04-13T21:14:58.621Z,35.37
2023-04-13T21:17:25.526Z,36.03
2023-04-13T21:19:52.250Z,35.52
2023-04-13T21:22:19.729Z,35.80
2023-04-13T21:24:46.705Z,35.58
2023-04-13T21:27:14.053Z,35.93
2023-04-13T21:29:40.654Z,35.63
2023-04-13T21:32:07.282Z,36.52
2023-04-13T21:34:33.919Z,36.07
2023-04-13T21:37:03.135Z,35.77
2023-04-13T21:39:30.348Z,35.77
2023-04-13T21:41:57.000Z,35.40
2023-04-13T21:44:29.692Z,35.52
2023-04-13T21:46:57.377Z,35.56
2023-04-13T21:49:24.114Z,35.62
2023-04-13T21:51:50.833Z,35.68
2023-04-13T21:54:17.416Z,35.75
2023-04-13T21:56:44.020Z,35.72
2023-04-13T21:59:10.643Z,35.56
2023-04-13T22:01:37.371Z,35.98
2023-04-13T22:04:04.202Z,35.98
2023-04-13T22:06:31.327Z,35.61
2023-04-13T22:08:58.113Z,35.54
2023-04-13T22:11:24.851Z,35.74
2023-04-13T22:13:51.459Z,35.40
2023-04-13T22:16:18.142Z,35.48
2023-04-13T22:18:44.913Z,35.47
2023-04-13T22:21:11.573Z,35.29
2023-04-13T22:23:38.134Z,35.52
2023-04-13T22:26:04.908Z,35.49
2023-04-13T22:28:31.863Z,35.48
2023-04-13T22:30:58.801Z,35.41
2023-04-13T22:33:25.503Z,35.64
2023-04-13T22:35:52.197Z,35.62
2023-04-13T22:38:19.212Z,35.79
2023-04-13T22:40:45.873Z,36.33
2023-04-13T22:43:12.623Z,36.08
2023-04-13T22:45:39.242Z,35.87
2023-04-13T22:48:06.142Z,35.95
2023-04-13T22:50:32.842Z,36.15
2023-04-13T22:52:59.376Z,36.18
2023-04-13T22:55:26.107Z,36.45
2023-04-13T22:57:52.779Z,36.08
2023-04-13T23:00:20.855Z,36.10
2023-04-13T23:02:51.716Z,35.96
2023-04-13T23:05:18.463Z,36.64
2023-04-13T23:07:45.057Z,36.16
2023-04-13T23:10:11.705Z,36.25
2023-04-13T23:12:39.957Z,36.38
2023-04-13T23:15:06.931Z,36.27
2023-04-13T23:17:33.567Z,36.41
2023-04-13T23:20:00.390Z,37.17
2023-04-13T23:22:28.112Z,36.59
2023-04-13T23:24:54.736Z,36.71
2023-04-13T23:27:21.480Z,37.13
2023-04-13T23:29:50.966Z,36.98
2023-04-13T23:32:17.594Z,38.18
2023-04-13T23:34:44.183Z,37.31
2023-04-13T23:37:11.064Z,37.14
2023-04-13T23:39:38.075Z,39.33
2023-04-13T23:42:04.777Z,37.21
2023-04-13T23:44:31.344Z,37.18
2023-04-13T23:46:57.941Z,37.29
2023-04-13T23:49:24.602Z,37.41
2023-04-13T23:51:51.420Z,38.54
2023-04-13T23:54:18.050Z,38.01
2023-04-13T23:56:45.953Z,37.85
2023-04-13T23:59:12.521Z,37.64
